Time;durP1;ratioP1;P1;durP2;ratioP2;P2;SDS_P1;SDS_P2;PMS_P1;PMS_P2;Temp;Humidity;BMP_temperature;BMP_pressure;BME280_temperature;BME280_humidity;BME280_pressure;Samples;Min_cycle;Max_cycle;Signal;HPM_P1;HPM_P2
2024/01/01 00:01:41;;;;;;;14.10;8.97;;;10.10;97.90;;;;;;5138252;27;20491;-67
2024/01/01 00:04:09;;;;;;;16.33;7.00;;;10.10;97.50;;;;;;5138600;27;20434;-67
2024/01/01 00:06:37;;;;;;;16.27;7.07;;;10.10;97.50;;;;;;5138558;27;20869;-67
2024/01/01 00:09:04;;;;;;;16.03;8.40;;;10.00;97.50;;;;;;5138274;27;20480;-67
2024/01/01 00:11:31;;;;;;;19.63;7.90;;;10.00;97.40;;;;;;5138398;27;20434;-67
2024/01/01 00:13:58;;;;;;;10.10;6.67;;;10.00;97.40;;;;;;5120367;27;20536;-67
2024/01/01 00:16:24;;;;;;;13.17;5.90;;;9.90;97.90;;;;;;5137948;27;20961;-67
2024/01/01 00:18:51;;;;;;;12.90;6.03;;;9.90;98.00;;;;;;5145638;27;20437;-67
2024/01/01 00:21:18;;;;;;;13.63;6.83;;;9.90;98.10;;;;;;5143802;27;20458;-68
2024/01/01 00:23:46;;;;;;;13.73;4.87;;;9.90;98.00;;;;;;5141823;27;20454;-67
2024/01/01 00:26:13;;;;;;;11.07;4.13;;;9.90;98.00;;;;;;5140020;27;20451;-67
2024/01/01 00:28:40;;;;;;;8.60;3.90;;;9.90;97.90;;;;;;5138945;27;20516;-67
2024/01/01 00:31:07;;;;;;;9.63;5.00;;;9.90;98.00;;;;;;5138043;27;20457;-67
2024/01/01 00:33:33;;;;;;;10.03;5.00;;;10.00;97.70;;;;;;5119916;27;20536;-67
2024/01/01 00:36:00;;;;;;;10.13;4.23;;;10.00;97.90;;;;;;5138119;27;20445;-68
2024/01/01 00:38:27;;;;;;;7.33;3.63;;;10.00;97.30;;;;;;5137789;27;20441;-67
2024/01/01 00:40:55;;;;;;;6.00;3.63;;;10.00;97.30;;;;;;5138064;27;20464;-67
2024/01/01 00:43:22;;;;;;;11.00;4.13;;;10.00;97.40;;;;;;5138067;27;20446;-67
2024/01/01 00:45:48;;;;;;;6.90;2.80;;;10.10;97.60;;;;;;5138625;27;20824;-67
2024/01/01 00:48:16;;;;;;;8.13;3.10;;;10.10;97.00;;;;;;5138042;27;20480;-67
2024/01/01 00:50:45;;;;;;;8.10;2.70;;;10.10;97.00;;;;;;5137549;27;20469;-67
2024/01/01 00:53:13;;;;;;;10.67;3.27;;;10.10;96.80;;;;;;5138466;27;20442;-67
2024/01/01 00:55:39;;;;;;;12.10;3.43;;;10.10;96.70;;;;;;5138300;27;20461;-67
2024/01/01 00:58:08;;;;;;;11.57;3.00;;;10.10;96.70;;;;;;5138160;27;20441;-68
2024/01/01 01:00:34;;;;;;;9.50;3.60;;;10.00;96.50;;;;;;5137950;27;20470;-67
2024/01/01 01:03:01;;;;;;;7.03;2.50;;;10.00;96.50;;;;;;5138587;27;20438;-67
2024/01/01 01:05:28;;;;;;;8.93;3.50;;;10.00;96.80;;;;;;5138584;27;20461;-67
2024/01/01 01:07:55;;;;;;;7.67;2.30;;;10.00;96.80;;;;;;5137929;27;20487;-67
2024/01/01 01:10:22;;;;;;;11.83;4.20;;;10.10;97.00;;;;;;5119385;27;20488;-67
2024/01/01 01:12:50;;;;;;;6.80;2.70;;;10.10;96.60;;;;;;5138337;27;20438;-67
2024/01/01 01:15:18;;;;;;;10.63;2.60;;;10.10;96.70;;;;;;5119942;27;20484;-67
2024/01/01 01:17:45;;;;;;;4.70;2.00;;;10.10;96.40;;;;;;5139236;27;20442;-67
2024/01/01 01:20:15;;;;;;;6.27;2.53;;;10.10;96.00;;;;;;5137762;27;20454;-67
2024/01/01 01:22:42;;;;;;;8.70;2.40;;;10.10;96.10;;;;;;5119998;27;20943;-67
2024/01/01 01:25:09;;;;;;;5.77;2.27;;;10.10;96.10;;;;;;5137180;27;20474;-67
2024/01/01 01:27:36;;;;;;;4.80;1.60;;;10.10;96.20;;;;;;5136669;27;20952;-67
2024/01/01 01:30:03;;;;;;;7.90;2.80;;;10.10;96.20;;;;;;5136752;27;20918;-67
2024/01/01 01:32:31;;;;;;;10.83;2.67;;;10.20;96.10;;;;;;5137570;27;20943;-67
2024/01/01 01:34:58;;;;;;;6.07;2.97;;;10.20;95.90;;;;;;5137235;27;20464;-67
2024/01/01 01:37:24;;;;;;;8.40;2.37;;;10.20;96.10;;;;;;5137100;27;20959;-67
2024/01/01 01:39:51;;;;;;;8.23;2.20;;;10.10;96.20;;;;;;5137031;27;20971;-67
2024/01/01 01:42:18;;;;;;;8.13;2.23;;;10.10;96.50;;;;;;5137104;27;20441;-67
2024/01/01 01:44:45;;;;;;;6.27;2.20;;;10.10;96.90;;;;;;5136894;27;20923;-67
2024/01/01 01:47:12;;;;;;;5.97;2.20;;;10.10;96.90;;;;;;5136337;27;20449;-66
2024/01/01 01:49:41;;;;;;;9.87;2.53;;;10.00;97.10;;;;;;5136743;27;20498;-66
2024/01/01 01:52:10;;;;;;;6.63;2.33;;;10.00;97.90;;;;;;5136909;27;20536;-66
2024/01/01 01:54:37;;;;;;;9.43;2.10;;;9.90;99.00;;;;;;5136704;27;20519;-65
2024/01/01 01:57:05;;;;;;;7.90;2.00;;;9.80;99.90;;;;;;5136537;27;20461;-65
2024/01/01 01:59:32;;;;;;;10.87;2.27;;;9.70;99.90;;;;;;5136220;27;20842;-65
2024/01/01 02:01:59;;;;;;;6.97;1.90;;;9.50;99.90;;;;;;5136409;27;20818;-65
2024/01/01 02:04:26;;;;;;;12.03;2.47;;;9.30;99.90;;;;;;5117700;27;20804;-65
2024/01/01 02:06:54;;;;;;;11.70;2.63;;;9.30;99.90;;;;;;5136229;27;20438;-65
2024/01/01 02:09:21;;;;;;;10.07;2.30;;;9.10;99.90;;;;;;5135935;27;20867;-65
2024/01/01 02:11:47;;;;;;;14.47;2.37;;;8.90;99.90;;;;;;5136323;27;20453;-65
2024/01/01 02:14:16;;;;;;;6.90;2.17;;;8.90;99.90;;;;;;5136153;27;20484;-65
2024/01/01 02:16:44;;;;;;;10.43;2.20;;;8.90;99.90;;;;;;5135554;27;20446;-65
2024/01/01 02:19:18;;;;;;;15.00;2.20;;;8.80;99.90;;;;;;5136095;27;20444;-66
2024/01/01 02:21:45;;;;;;;13.47;2.43;;;8.80;99.90;;;;;;5136285;27;20791;-65
2024/01/01 02:24:15;;;;;;;7.77;2.03;;;8.80;99.90;;;;;;5135920;27;20437;-65
2024/01/01 02:26:42;;;;;;;15.03;3.43;;;8.80;99.90;;;;;;5136346;27;20491;-66
2024/01/01 02:29:09;;;;;;;11.47;2.80;;;8.80;99.90;;;;;;5135594;27;21011;-66
2024/01/01 02:31:39;;;;;;;8.43;2.00;;;8.70;99.90;;;;;;5135937;27;20448;-66
2024/01/01 02:34:06;;;;;;;11.30;2.23;;;8.80;99.90;;;;;;5136517;27;20446;-65
2024/01/01 02:36:36;;;;;;;6.13;2.47;;;8.70;99.90;;;;;;5142897;27;20430;-66
2024/01/01 02:39:05;;;;;;;10.20;2.47;;;8.70;99.90;;;;;;5140620;27;20426;-66
2024/01/01 02:41:34;;;;;;;12.40;2.07;;;8.80;99.90;;;;;;5139183;27;20438;-66
2024/01/01 02:44:01;;;;;;;5.33;2.00;;;8.80;99.90;;;;;;5137484;27;20438;-65
2024/01/01 02:46:28;;;;;;;11.70;2.20;;;8.90;99.90;;;;;;5136832;27;20441;-65
2024/01/01 02:48:55;;;;;;;8.13;2.70;;;8.90;99.90;;;;;;5136441;27;20440;-66
2024/01/01 02:51:22;;;;;;;8.97;2.83;;;8.90;99.90;;;;;;5136098;27;20437;-66
2024/01/01 02:53:49;;;;;;;11.57;2.40;;;8.90;99.90;;;;;;5136750;27;20811;-66
2024/01/01 02:56:16;;;;;;;13.10;2.60;;;8.90;99.90;;;;;;5136500;27;20453;-66
2024/01/01 02:58:45;;;;;;;9.43;2.03;;;8.90;99.90;;;;;;5136302;27;20434;-65
2024/01/01 03:01:12;;;;;;;5.17;2.17;;;8.90;99.90;;;;;;5136283;27;20848;-66
2024/01/01 03:03:38;;;;;;;10.93;2.47;;;8.90;99.90;;;;;;5135736;27;21000;-66
2024/01/01 03:06:06;;;;;;;12.67;2.60;;;8.90;99.90;;;;;;5136918;27;20434;-66
2024/01/01 03:08:36;;;;;;;13.87;3.30;;;8.90;99.90;;;;;;5135851;27;20616;-66
2024/01/01 03:11:03;;;;;;;11.00;2.80;;;9.00;99.90;;;;;;5135935;27;20565;-66
2024/01/01 03:13:30;;;;;;;20.60;3.70;;;8.90;99.90;;;;;;5136113;27;20454;-67
2024/01/01 03:15:58;;;;;;;7.40;2.40;;;8.90;99.90;;;;;;5136083;27;20450;-66
2024/01/01 03:18:25;;;;;;;12.70;2.93;;;9.00;99.90;;;;;;5135852;27;20442;-66
2024/01/01 03:20:52;;;;;;;17.17;3.20;;;8.90;99.90;;;;;;5135792;27;20461;-66
2024/01/01 03:23:19;;;;;;;12.27;2.20;;;8.90;99.90;;;;;;5136461;27;20962;-66
2024/01/01 03:25:46;;;;;;;8.67;2.10;;;9.00;99.90;;;;;;5136396;27;20445;-66
2024/01/01 03:28:13;;;;;;;16.30;2.17;;;9.00;99.90;;;;;;5117591;27;20469;-67
2024/01/01 03:30:40;;;;;;;7.83;2.20;;;8.90;99.90;;;;;;5135762;27;20486;-66
2024/01/01 03:33:08;;;;;;;11.90;2.23;;;8.90;99.90;;;;;;5117540;28;20480;-66
2024/01/01 03:35:35;;;;;;;6.50;2.37;;;8.90;99.90;;;;;;5135863;28;20442;-67
2024/01/01 03:38:02;;;;;;;14.37;2.90;;;8.90;99.90;;;;;;5136367;28;20924;-66
2024/01/01 03:40:30;;;;;;;14.80;2.70;;;8.80;99.90;;;;;;5136075;28;20457;-66
2024/01/01 03:42:57;;;;;;;16.60;2.97;;;8.80;99.90;;;;;;5137170;28;20446;-66
2024/01/01 03:45:24;;;;;;;7.73;1.77;;;8.80;99.90;;;;;;5135444;28;20438;-66
2024/01/01 03:47:52;;;;;;;9.07;2.93;;;8.90;99.90;;;;;;5136068;28;20863;-66
2024/01/01 03:50:20;;;;;;;8.70;2.07;;;8.80;99.90;;;;;;5136683;28;20482;-66
2024/01/01 03:52:47;;;;;;;16.30;4.17;;;8.80;99.90;;;;;;5137830;28;20536;-66
2024/01/01 03:55:15;;;;;;;16.97;2.80;;;8.80;99.90;;;;;;5137142;28;20809;-66
2024/01/01 03:57:42;;;;;;;12.47;2.80;;;8.90;99.90;;;;;;5136969;28;20882;-66
2024/01/01 04:00:11;;;;;;;10.60;2.77;;;8.80;99.90;;;;;;5136792;28;20450;-66
2024/01/01 04:02:39;;;;;;;12.97;2.70;;;8.90;99.90;;;;;;5137915;28;20450;-66
2024/01/01 04:05:06;;;;;;;13.70;2.43;;;8.90;99.90;;;;;;5119679;28;20490;-66
2024/01/01 04:07:34;;;;;;;17.57;3.03;;;8.90;99.90;;;;;;5137491;28;20525;-66
2024/01/01 04:10:01;;;;;;;7.80;2.30;;;9.00;99.90;;;;;;5137317;28;20490;-67
2024/01/01 04:12:27;;;;;;;19.57;3.33;;;8.90;99.90;;;;;;5137900;28;20434;-67
2024/01/01 04:14:54;;;;;;;9.93;2.43;;;9.00;99.90;;;;;;5118561;28;20473;-67
2024/01/01 04:17:21;;;;;;;8.83;3.20;;;9.00;99.90;;;;;;5136116;28;20438;-67
2024/01/01 04:19:48;;;;;;;18.90;3.93;;;9.00;99.90;;;;;;5137633;28;20460;-67
2024/01/01 04:22:14;;;;;;;11.37;2.40;;;9.00;99.90;;;;;;5138691;28;20440;-67
2024/01/01 04:24:43;;;;;;;8.40;2.80;;;9.00;99.90;;;;;;5124275;28;20503;-67
2024/01/01 04:27:10;;;;;;;14.07;2.80;;;9.00;99.90;;;;;;5142131;28;20467;-67
2024/01/01 04:29:37;;;;;;;8.63;2.43;;;9.00;99.90;;;;;;5141639;28;20482;-67
2024/01/01 04:32:04;;;;;;;16.03;2.30;;;9.00;99.90;;;;;;5142196;28;20450;-67
2024/01/01 04:34:31;;;;;;;9.93;2.43;;;9.00;99.90;;;;;;5122905;28;20442;-67
2024/01/01 04:36:58;;;;;;;18.07;4.93;;;9.00;99.90;;;;;;5141210;28;20438;-67
2024/01/01 04:39:25;;;;;;;17.83;5.33;;;9.10;99.90;;;;;;5139513;27;20473;-67
2024/01/01 04:41:53;;;;;;;27.00;5.03;;;9.10;99.90;;;;;;5142848;27;20445;-67
2024/01/01 04:44:20;;;;;;;13.40;3.80;;;9.10;99.90;;;;;;5144203;27;20446;-67
2024/01/01 04:46:47;;;;;;;7.30;2.07;;;9.10;99.90;;;;;;5144877;27;20448;-67
2024/01/01 04:49:13;;;;;;;8.27;2.33;;;9.10;99.90;;;;;;5143378;27;20438;-67
2024/01/01 04:51:40;;;;;;;16.83;2.23;;;9.10;99.90;;;;;;5143894;27;20445;-67
2024/01/01 04:54:07;;;;;;;17.83;2.60;;;9.10;99.90;;;;;;5148801;27;20418;-66
2024/01/01 04:56:33;;;;;;;14.90;2.60;;;9.10;99.90;;;;;;5146696;27;20479;-68
2024/01/01 04:59:03;;;;;;;8.90;2.20;;;9.10;99.90;;;;;;5145363;27;20438;-67
2024/01/01 05:01:30;;;;;;;8.00;2.13;;;9.10;99.90;;;;;;5146180;27;20881;-67
2024/01/01 05:03:57;;;;;;;8.37;2.60;;;9.10;99.90;;;;;;5142999;27;20442;-67
2024/01/01 05:06:26;;;;;;;13.60;3.00;;;9.20;99.90;;;;;;5141164;27;20437;-67
2024/01/01 05:08:52;;;;;;;8.53;2.00;;;9.10;99.90;;;;;;5140512;27;20445;-67
2024/01/01 05:11:19;;;;;;;12.70;2.93;;;9.20;99.90;;;;;;5139942;27;20481;-67
2024/01/01 05:13:46;;;;;;;11.00;2.10;;;9.20;99.90;;;;;;5140181;27;20473;-67
2024/01/01 05:16:14;;;;;;;13.50;3.30;;;9.20;99.90;;;;;;5120863;27;20450;-67
2024/01/01 05:18:41;;;;;;;12.50;2.60;;;9.20;99.90;;;;;;5138211;27;20442;-67
2024/01/01 05:21:08;;;;;;;8.57;2.20;;;9.20;99.90;;;;;;5138040;27;20454;-67
2024/01/01 05:23:35;;;;;;;9.60;1.77;;;9.20;99.90;;;;;;5138171;27;20456;-67
2024/01/01 05:26:01;;;;;;;14.30;3.10;;;9.20;99.90;;;;;;5138584;27;20438;-67
2024/01/01 05:28:28;;;;;;;11.80;2.83;;;9.20;99.90;;;;;;5138134;27;20445;-67
2024/01/01 05:30:55;;;;;;;10.27;2.90;;;9.20;99.90;;;;;;5137562;27;20482;-67
2024/01/01 05:33:23;;;;;;;13.83;2.73;;;9.20;99.90;;;;;;5138184;27;20449;-67
2024/01/01 05:35:50;;;;;;;13.37;2.43;;;9.20;99.90;;;;;;5137515;27;20449;-67
2024/01/01 05:38:17;;;;;;;12.20;3.00;;;9.20;99.90;;;;;;5137376;27;20446;-67
2024/01/01 05:40:45;;;;;;;9.07;2.70;;;9.20;99.90;;;;;;5137637;27;20846;-67
2024/01/01 05:43:12;;;;;;;17.23;2.70;;;9.20;99.90;;;;;;5137171;27;20446;-67
2024/01/01 05:45:39;;;;;;;17.87;2.47;;;9.20;99.90;;;;;;5137296;27;20437;-67
2024/01/01 05:48:06;;;;;;;10.83;2.33;;;9.20;99.90;;;;;;5136958;27;20453;-67
2024/01/01 05:50:35;;;;;;;13.17;2.60;;;9.20;99.90;;;;;;5137079;27;20490;-67
2024/01/01 05:53:01;;;;;;;12.50;3.37;;;9.20;99.90;;;;;;5135851;27;20814;-67
2024/01/01 05:55:28;;;;;;;12.90;2.33;;;9.20;99.90;;;;;;5136820;27;20449;-68
2024/01/01 05:57:55;;;;;;;17.37;2.40;;;9.20;99.90;;;;;;5136681;27;20425;-67
2024/01/01 06:00:22;;;;;;;8.07;2.10;;;9.20;99.90;;;;;;5136234;27;20461;-67
2024/01/01 06:02:48;;;;;;;6.67;2.03;;;9.20;99.90;;;;;;5136850;27;20438;-67
2024/01/01 06:05:15;;;;;;;9.50;2.20;;;9.20;99.90;;;;;;5118437;27;20441;-67
2024/01/01 06:07:43;;;;;;;9.80;2.17;;;9.20;99.90;;;;;;5136025;27;20919;-67
2024/01/01 06:10:11;;;;;;;9.47;1.87;;;9.20;99.90;;;;;;5135883;27;21016;-67
2024/01/01 06:12:38;;;;;;;14.13;2.50;;;9.20;99.90;;;;;;5136279;27;20434;-67
2024/01/01 06:15:07;;;;;;;10.60;3.07;;;9.10;99.90;;;;;;5136436;27;20445;-67
2024/01/01 06:17:34;;;;;;;13.70;2.20;;;9.10;99.90;;;;;;5136064;27;20438;-67
2024/01/01 06:20:01;;;;;;;11.43;2.60;;;9.10;99.90;;;;;;5135965;27;20458;-66
2024/01/01 06:22:28;;;;;;;8.60;2.83;;;9.10;99.90;;;;;;5117730;27;20445;-67
2024/01/01 06:24:56;;;;;;;12.33;2.93;;;9.00;99.90;;;;;;5135963;27;20526;-66
2024/01/01 06:27:23;;;;;;;17.33;3.00;;;9.00;99.90;;;;;;5135845;27;20438;-67
2024/01/01 06:29:49;;;;;;;11.40;2.40;;;8.90;99.90;;;;;;5135866;27;20454;-67
2024/01/01 06:32:16;;;;;;;12.30;2.50;;;9.00;99.90;;;;;;5135561;27;20442;-67
2024/01/01 06:34:44;;;;;;;13.43;3.07;;;9.00;99.90;;;;;;5135950;27;20446;-67
2024/01/01 06:37:11;;;;;;;14.53;4.10;;;8.90;99.90;;;;;;5135412;27;20477;-67
2024/01/01 06:39:38;;;;;;;13.10;2.80;;;8.90;99.90;;;;;;5135500;27;20458;-66
2024/01/01 06:42:06;;;;;;;10.63;2.60;;;8.90;99.90;;;;;;5135579;27;20441;-66
2024/01/01 06:44:33;;;;;;;13.03;2.40;;;8.80;99.90;;;;;;5135649;27;20445;-66
2024/01/01 06:47:00;;;;;;;11.10;2.50;;;8.80;99.90;;;;;;5135638;27;20442;-66
2024/01/01 06:49:26;;;;;;;6.93;1.57;;;8.70;99.90;;;;;;5135346;27;20872;-66
2024/01/01 06:51:53;;;;;;;12.03;2.83;;;8.70;99.90;;;;;;5135328;27;20486;-66
2024/01/01 06:54:20;;;;;;;10.50;2.43;;;8.60;99.90;;;;;;5135155;27;20441;-66
2024/01/01 06:56:47;;;;;;;17.90;2.60;;;8.60;99.90;;;;;;5134975;27;20453;-66
2024/01/01 06:59:15;;;;;;;5.97;2.33;;;8.60;99.90;;;;;;5135029;27;20434;-66
2024/01/01 07:01:43;;;;;;;11.00;2.90;;;8.60;99.90;;;;;;5134717;27;20977;-66
2024/01/01 07:04:09;;;;;;;12.73;3.13;;;8.50;99.90;;;;;;5134801;27;20871;-67
2024/01/01 07:06:37;;;;;;;8.73;2.50;;;8.50;99.90;;;;;;5116694;27;20442;-66
2024/01/01 07:09:05;;;;;;;9.67;2.13;;;8.50;99.90;;;;;;5137005;27;20449;-66
2024/01/01 07:11:32;;;;;;;7.03;1.67;;;8.50;99.90;;;;;;5148026;27;20541;-67
2024/01/01 07:13:59;;;;;;;13.50;3.20;;;8.50;99.90;;;;;;5140947;27;20819;-66
2024/01/01 07:16:27;;;;;;;10.13;2.40;;;8.60;99.90;;;;;;5139502;27;20477;-66
2024/01/01 07:18:54;;;;;;;7.23;1.77;;;8.50;99.90;;;;;;5135494;27;20954;-66
2024/01/01 07:21:21;;;;;;;6.20;2.20;;;8.40;99.90;;;;;;5136403;27;20440;-66
2024/01/01 07:23:48;;;;;;;6.17;1.93;;;8.50;99.90;;;;;;5135943;27;20442;-66
2024/01/01 07:26:15;;;;;;;10.03;2.30;;;8.50;99.90;;;;;;5136035;27;20460;-66
2024/01/01 07:28:42;;;;;;;8.57;2.37;;;8.50;99.90;;;;;;5135556;27;20438;-67
2024/01/01 07:31:10;;;;;;;10.00;2.07;;;8.50;99.90;;;;;;5135110;27;20477;-66
2024/01/01 07:33:38;;;;;;;8.60;1.50;;;8.50;99.90;;;;;;5135183;27;20869;-67
2024/01/01 07:36:13;;;;;;;8.23;1.83;;;8.50;99.90;;;;;;5135500;27;20947;-66
2024/01/01 07:38:41;;;;;;;7.63;2.10;;;8.50;99.90;;;;;;5135109;27;20497;-66
2024/01/01 07:41:08;;;;;;;5.10;1.97;;;8.40;99.90;;;;;;5134898;28;20464;-66
2024/01/01 07:43:35;;;;;;;6.47;1.40;;;8.40;99.90;;;;;;5134758;28;20586;-66
2024/01/01 07:46:03;;;;;;;3.40;1.07;;;8.40;99.90;;;;;;5135085;28;20449;-66
2024/01/01 07:48:32;;;;;;;5.60;1.17;;;8.40;99.90;;;;;;5134989;28;20532;-66
2024/01/01 07:51:01;;;;;;;8.47;1.60;;;8.30;99.90;;;;;;5134706;28;20488;-67
2024/01/01 07:53:28;;;;;;;2.93;0.93;;;8.30;99.90;;;;;;5134365;28;20931;-67
2024/01/01 07:55:54;;;;;;;10.37;1.70;;;8.30;99.90;;;;;;5134559;28;20457;-66
2024/01/01 07:58:23;;;;;;;5.40;1.03;;;8.30;99.90;;;;;;5134674;28;20441;-66
2024/01/01 08:00:50;;;;;;;4.70;1.43;;;8.10;99.90;;;;;;5134368;28;21020;-66
2024/01/01 08:03:19;;;;;;;3.90;1.00;;;8.10;99.90;;;;;;5134262;28;20446;-67
2024/01/01 08:05:46;;;;;;;4.67;1.57;;;8.10;99.90;;;;;;5134669;28;20442;-66
2024/01/01 08:08:14;;;;;;;2.60;1.33;;;8.10;99.90;;;;;;5134404;28;20821;-67
2024/01/01 08:10:43;;;;;;;6.47;1.97;;;8.10;99.90;;;;;;5133924;28;20974;-66
2024/01/01 08:13:10;;;;;;;4.20;1.10;;;8.00;99.90;;;;;;5134406;28;20442;-66
2024/01/01 08:15:37;;;;;;;3.87;1.33;;;8.10;99.90;;;;;;5136239;27;20434;-67
2024/01/01 08:18:04;;;;;;;5.90;1.33;;;8.10;99.90;;;;;;5138376;27;20830;-67
2024/01/01 08:20:31;;;;;;;2.17;1.20;;;8.20;99.90;;;;;;5138025;27;20836;-67
2024/01/01 08:22:57;;;;;;;7.60;3.70;;;8.20;99.90;;;;;;5138231;27;20448;-67
2024/01/01 08:25:25;;;;;;;4.57;1.47;;;8.20;99.90;;;;;;5138522;27;20442;-67
2024/01/01 08:27:52;;;;;;;6.73;1.20;;;8.30;99.90;;;;;;5138052;27;20491;-67
2024/01/01 08:30:19;;;;;;;3.70;1.40;;;8.30;99.90;;;;;;5138078;27;20457;-67
2024/01/01 08:32:46;;;;;;;4.70;1.00;;;8.30;99.90;;;;;;5138454;27;20483;-67
2024/01/01 08:35:13;;;;;;;3.37;1.03;;;8.30;99.90;;;;;;5137640;27;20440;-66
2024/01/01 08:37:40;;;;;;;3.03;0.93;;;8.30;99.90;;;;;;5138149;27;20943;-67
2024/01/01 08:40:08;;;;;;;4.50;1.30;;;8.30;99.90;;;;;;5137815;27;20465;-67
2024/01/01 08:42:37;;;;;;;4.00;1.17;;;8.20;99.90;;;;;;5137902;27;20463;-67
2024/01/01 08:45:04;;;;;;;4.97;1.03;;;8.30;99.90;;;;;;5137849;27;20446;-66
2024/01/01 08:47:31;;;;;;;13.17;2.30;;;8.20;99.90;;;;;;5137838;27;20437;-67
2024/01/01 08:49:59;;;;;;;5.00;1.30;;;8.30;99.90;;;;;;5137612;27;20462;-67
2024/01/01 08:52:26;;;;;;;5.50;1.37;;;8.40;99.90;;;;;;5137880;27;20476;-67
2024/01/01 08:54:52;;;;;;;8.33;1.17;;;8.40;99.90;;;;;;5137168;27;21066;-66
2024/01/01 08:57:19;;;;;;;4.20;1.17;;;8.40;99.90;;;;;;5137765;27;20478;-67
2024/01/01 08:59:47;;;;;;;3.00;1.03;;;8.40;99.90;;;;;;5137683;27;20466;-66
2024/01/01 09:02:14;;;;;;;5.90;1.33;;;8.50;99.90;;;;;;5138285;27;20838;-66
2024/01/01 09:04:42;;;;;;;4.70;1.30;;;8.40;99.90;;;;;;5138247;27;20437;-66
2024/01/01 09:07:09;;;;;;;5.37;1.37;;;8.50;99.90;;;;;;5137768;27;20438;-67
2024/01/01 09:09:37;;;;;;;3.20;1.73;;;8.50;99.90;;;;;;5137096;27;20462;-68
2024/01/01 09:12:05;;;;;;;8.10;1.63;;;8.50;99.90;;;;;;5136947;27;21064;-67
2024/01/01 09:14:34;;;;;;;4.10;1.80;;;8.50;99.90;;;;;;5137013;27;20450;-68
2024/01/01 09:17:03;;;;;;;4.33;1.37;;;8.50;99.90;;;;;;5136903;27;20857;-67
2024/01/01 09:19:30;;;;;;;4.90;1.40;;;8.50;99.90;;;;;;5137123;27;20468;-67
2024/01/01 09:21:57;;;;;;;5.93;1.47;;;8.50;99.90;;;;;;5136961;27;20442;-67
2024/01/01 09:24:24;;;;;;;9.57;1.77;;;8.50;99.90;;;;;;5139238;27;20449;-67
2024/01/01 09:26:51;;;;;;;4.93;1.33;;;8.40;99.90;;;;;;5151727;27;20489;-68
2024/01/01 09:29:17;;;;;;;4.63;1.50;;;8.50;99.90;;;;;;5143580;27;20460;-67
2024/01/01 09:31:44;;;;;;;5.70;1.53;;;8.50;99.90;;;;;;5141192;27;20482;-67
2024/01/01 09:34:12;;;;;;;6.87;1.90;;;8.50;99.90;;;;;;5138879;27;20449;-67
2024/01/01 09:36:41;;;;;;;9.77;3.10;;;8.40;99.90;;;;;;5139165;27;20446;-67
2024/01/01 09:39:08;;;;;;;7.10;1.80;;;8.40;99.90;;;;;;5137468;27;20454;-68
2024/01/01 09:41:35;;;;;;;4.70;2.10;;;8.40;99.90;;;;;;5137623;27;20442;-67
2024/01/01 09:44:03;;;;;;;7.87;1.97;;;8.40;99.90;;;;;;5138120;27;20442;-71
2024/01/01 09:46:33;;;;;;;4.30;2.20;;;8.40;99.90;;;;;;5137893;27;20446;-67
2024/01/01 09:48:59;;;;;;;7.23;1.50;;;8.40;99.90;;;;;;5136753;27;21018;-67
2024/01/01 09:51:28;;;;;;;6.70;1.33;;;8.40;99.90;;;;;;5137191;27;20474;-67
2024/01/01 09:53:55;;;;;;;5.17;2.17;;;8.50;99.90;;;;;;5136494;27;20835;-67
2024/01/01 09:56:22;;;;;;;14.30;1.93;;;8.60;99.90;;;;;;5136845;27;20461;-67
2024/01/01 09:58:48;;;;;;;4.73;1.27;;;8.60;99.90;;;;;;5136771;27;20445;-67
2024/01/01 10:01:16;;;;;;;8.90;1.80;;;8.70;99.90;;;;;;5136654;27;20462;-68
2024/01/01 10:03:43;;;;;;;3.97;2.27;;;8.60;99.90;;;;;;5136831;27;20442;-68
2024/01/01 10:06:11;;;;;;;6.37;1.90;;;8.70;99.90;;;;;;5118181;27;20441;-67
2024/01/01 10:08:40;;;;;;;9.73;2.73;;;8.80;99.90;;;;;;5136428;27;20441;-67
2024/01/01 10:11:17;;;;;;;5.30;2.00;;;8.80;99.90;;;;;;5117948;27;20472;-67
2024/01/01 10:13:44;;;;;;;7.70;1.40;;;8.80;99.90;;;;;;5136142;27;20475;-70
2024/01/01 10:16:11;;;;;;;9.87;1.60;;;8.70;99.90;;;;;;5136075;27;20446;-67
2024/01/01 10:18:38;;;;;;;2.73;1.73;;;8.70;99.90;;;;;;5135852;27;20931;-67
2024/01/01 10:21:11;;;;;;;5.87;1.20;;;8.60;99.90;;;;;;5136006;27;20458;-66
2024/01/01 10:23:38;;;;;;;7.00;1.87;;;8.60;99.90;;;;;;5135818;27;20456;-67
2024/01/01 10:26:09;;;;;;;7.40;1.90;;;8.70;99.90;;;;;;5135533;27;20934;-71
2024/01/01 10:28:36;;;;;;;8.10;1.70;;;8.70;99.90;;;;;;5135526;27;20899;-67
2024/01/01 10:31:04;;;;;;;7.83;1.70;;;8.80;99.90;;;;;;5135550;27;20884;-67
2024/01/01 10:33:32;;;;;;;8.97;2.17;;;8.90;99.90;;;;;;5135612;27;20438;-67
2024/01/01 10:36:00;;;;;;;10.63;2.70;;;8.90;99.90;;;;;;5135381;27;20953;-67
2024/01/01 10:38:28;;;;;;;5.97;1.70;;;8.90;99.90;;;;;;5134956;27;20441;-67
2024/01/01 10:40:57;;;;;;;4.97;1.50;;;9.00;99.90;;;;;;5135397;27;20466;-68
2024/01/01 10:43:27;;;;;;;5.30;1.47;;;9.10;99.90;;;;;;5135693;27;20440;-68
2024/01/01 10:46:01;;;;;;;9.00;1.60;;;9.00;99.90;;;;;;5135752;27;20472;-68
2024/01/01 10:48:28;;;;;;;6.20;1.77;;;9.00;99.90;;;;;;5135429;27;20919;-68
2024/01/01 10:51:04;;;;;;;5.13;1.60;;;9.10;99.90;;;;;;5116678;27;20458;-68
2024/01/01 10:53:48;;;;;;;6.17;1.50;;;9.00;99.90;;;;;;5135332;27;20465;-67
2024/01/01 10:56:25;;;;;;;5.00;1.10;;;9.00;99.90;;;;;;5134977;27;20450;-68
2024/01/01 10:59:06;;;;;;;5.70;1.50;;;9.10;99.90;;;;;;5135328;27;20431;-67
2024/01/01 11:01:33;;;;;;;8.07;2.23;;;9.10;99.90;;;;;;5135389;27;20418;-69
2024/01/01 11:04:00;;;;;;;8.33;2.50;;;9.20;99.90;;;;;;5134702;27;20942;-68
2024/01/01 11:06:31;;;;;;;3.20;1.30;;;9.20;99.90;;;;;;5134967;27;20448;-68
2024/01/01 11:08:58;;;;;;;8.73;1.70;;;9.20;99.90;;;;;;5134655;27;20918;-69
2024/01/01 11:11:27;;;;;;;5.10;1.57;;;9.20;99.90;;;;;;5135008;27;20445;-68
2024/01/01 11:13:56;;;;;;;4.70;1.00;;;9.20;99.90;;;;;;5134877;27;20453;-68
2024/01/01 11:16:23;;;;;;;5.50;1.43;;;9.20;99.90;;;;;;5134932;27;20880;-68
2024/01/01 11:18:51;;;;;;;9.50;3.00;;;9.00;99.90;;;;;;5135131;27;20442;-68
2024/01/01 11:21:32;;;;;;;3.20;1.57;;;9.00;99.90;;;;;;5134710;27;20453;-68
2024/01/01 11:24:01;;;;;;;10.50;2.90;;;9.00;99.90;;;;;;5134842;27;20426;-68
2024/01/01 11:26:30;;;;;;;9.80;2.30;;;8.90;99.90;;;;;;5134727;27;20442;-68
2024/01/01 11:29:00;;;;;;;13.83;2.37;;;9.00;99.90;;;;;;5134476;27;20526;-69
2024/01/01 11:31:28;;;;;;;7.90;2.23;;;9.10;99.90;;;;;;5134433;27;20448;-68
2024/01/01 11:34:06;;;;;;;11.90;1.87;;;9.10;99.90;;;;;;5134650;27;20856;-68
2024/01/01 11:36:33;;;;;;;3.77;1.30;;;9.10;99.90;;;;;;5134560;27;20449;-67
2024/01/01 11:39:00;;;;;;;8.30;1.87;;;9.20;99.90;;;;;;5146606;27;20452;-68
2024/01/01 11:41:29;;;;;;;3.80;1.50;;;9.10;99.90;;;;;;5141065;27;20935;-68
2024/01/01 11:44:10;;;;;;;14.43;2.00;;;9.20;99.90;;;;;;5138918;28;20954;-68
2024/01/01 11:46:39;;;;;;;9.03;1.63;;;9.20;99.90;;;;;;5136843;28;20461;-68
2024/01/01 11:49:05;;;;;;;10.13;2.53;;;9.20;99.90;;;;;;5136431;27;20449;-68
2024/01/01 11:51:33;;;;;;;7.47;1.70;;;9.20;99.90;;;;;;5138930;27;20441;-71
2024/01/01 11:54:10;;;;;;;11.13;2.07;;;9.20;99.90;;;;;;5139558;27;20536;-72
2024/01/01 11:56:38;;;;;;;8.70;1.70;;;9.30;99.90;;;;;;5121096;27;20445;-68
2024/01/01 11:59:07;;;;;;;5.50;1.90;;;9.30;99.90;;;;;;5145245;27;20498;-67
2024/01/01 12:01:34;;;;;;;4.83;2.43;;;9.30;99.90;;;;;;5128453;27;20824;-67
2024/01/01 12:04:06;;;;;;;12.30;2.17;;;9.30;99.90;;;;;;5145808;27;20450;-67
2024/01/01 12:06:33;;;;;;;5.23;1.53;;;9.30;99.90;;;;;;5146286;27;20529;-68
2024/01/01 12:09:05;;;;;;;13.30;2.13;;;9.30;99.90;;;;;;5143331;27;20437;-68
2024/01/01 12:11:32;;;;;;;9.30;2.20;;;9.30;99.90;;;;;;5143715;27;20437;-67
2024/01/01 12:13:59;;;;;;;5.30;1.87;;;9.40;99.90;;;;;;5123839;27;20505;-67
2024/01/01 12:16:28;;;;;;;15.23;2.90;;;9.50;99.90;;;;;;5141486;27;20453;-67
2024/01/01 12:18:56;;;;;;;7.00;1.70;;;9.60;99.90;;;;;;5141767;27;20441;-68
2024/01/01 12:21:25;;;;;;;6.10;1.87;;;9.70;99.90;;;;;;5141453;27;20480;-67
2024/01/01 12:24:03;;;;;;;8.70;2.23;;;9.70;99.90;;;;;;5141251;27;20434;-68
2024/01/01 12:26:31;;;;;;;10.57;1.87;;;9.70;99.90;;;;;;5141215;27;20471;-67
2024/01/01 12:29:12;;;;;;;16.50;3.30;;;9.80;99.90;;;;;;5141322;27;20449;-68
2024/01/01 12:31:40;;;;;;;5.23;2.00;;;9.80;99.90;;;;;;5141009;27;20446;-68
2024/01/01 12:34:08;;;;;;;9.10;2.80;;;9.90;99.90;;;;;;5140435;27;20477;-67
2024/01/01 12:36:37;;;;;;;10.87;2.10;;;9.90;99.90;;;;;;5139858;27;20494;-67
2024/01/01 12:39:04;;;;;;;9.30;2.23;;;10.00;99.90;;;;;;5139490;27;20824;-68
2024/01/01 12:41:31;;;;;;;10.33;2.50;;;10.00;99.90;;;;;;5139660;27;20473;-67
2024/01/01 12:43:59;;;;;;;7.90;2.50;;;9.90;99.90;;;;;;5138984;27;20446;-67
2024/01/01 12:46:26;;;;;;;6.93;2.17;;;9.80;99.90;;;;;;5139395;27;20446;-67
2024/01/01 12:48:53;;;;;;;14.43;2.87;;;9.70;99.90;;;;;;5139007;27;20445;-67
2024/01/01 12:51:23;;;;;;;9.80;2.60;;;9.60;99.90;;;;;;5138710;27;20449;-67
2024/01/01 12:53:52;;;;;;;13.63;3.37;;;9.60;99.90;;;;;;5138458;27;20513;-67